SLT1670 UTAA-UUDD
Flight info
| Callsign | SLT1670 |
|---|---|
| Flight time | N/A |
| Altitude | 34000 |
| Route | MAM29D MAMED A87 TIROM Q161 NOGBU N193 ATNUR L864 DIMPA/K0861F360 L864 GEKPA L736 OLOPI OLOPI3N |
| Aircraft | B739/M-SDE2E3FGHIRWXY/LB1 |
Departure
| Time | 2026-05-06 15:30 |
|---|---|
| Airport | Ashgabat International Airport (UTAA) |
Arrival
| Time | N/A |
|---|---|
| Airport | Domodedovo International Airport (UUDD) |
| Time | Latitude | Longitude | Altitude | Speed | Heading |
|---|---|---|---|---|---|
| 2026-05-06 14:27 | 37.98301 | 58.36729 | 677 ft | 0 kts | 30° |
| 2026-05-06 15:16 | 37.98300 | 58.36728 | 677 ft | 1 kts | 30° |
| 2026-05-06 15:16 | 37.98279 | 58.36713 | 677 ft | 4 kts | 27° |
| 2026-05-06 15:16 | 37.98255 | 58.36698 | 677 ft | 4 kts | 27° |
| 2026-05-06 15:16 | 37.98235 | 58.36684 | 675 ft | 4 kts | 21° |
| 2026-05-06 15:17 | 37.98213 | 58.36683 | 677 ft | 4 kts | 321° |
| 2026-05-06 15:17 | 37.98196 | 58.36709 | 675 ft | 4 kts | 300° |
| 2026-05-06 15:17 | 37.98191 | 58.36719 | 677 ft | 0 kts | 299° |
| 2026-05-06 15:20 | 37.98206 | 58.36685 | 677 ft | 8 kts | 299° |
| 2026-05-06 15:20 | 37.98241 | 58.36605 | 677 ft | 11 kts | 299° |
| 2026-05-06 15:20 | 37.98279 | 58.36519 | 675 ft | 11 kts | 299° |
| 2026-05-06 15:21 | 37.98323 | 58.36441 | 673 ft | 11 kts | 322° |
| 2026-05-06 15:21 | 37.98393 | 58.36442 | 677 ft | 10 kts | 20° |
| 2026-05-06 15:21 | 37.98457 | 58.36482 | 675 ft | 10 kts | 29° |
| 2026-05-06 15:21 | 37.98517 | 58.36525 | 677 ft | 10 kts | 29° |
| 2026-05-06 15:22 | 37.98576 | 58.36567 | 677 ft | 10 kts | 28° |
| 2026-05-06 15:22 | 37.98634 | 58.36606 | 677 ft | 9 kts | 28° |
| 2026-05-06 15:22 | 37.98690 | 58.36645 | 677 ft | 9 kts | 28° |
| 2026-05-06 15:22 | 37.98749 | 58.36666 | 677 ft | 9 kts | 10° |
| 2026-05-06 15:23 | 37.98806 | 58.36692 | 677 ft | 9 kts | 26° |
| 2026-05-06 15:23 | 37.98857 | 58.36729 | 675 ft | 8 kts | 34° |
| 2026-05-06 15:23 | 37.98868 | 58.36738 | 677 ft | 1 kts | 33° |
| 2026-05-06 15:23 | 37.98889 | 58.36763 | 677 ft | 7 kts | 50° |
| 2026-05-06 15:24 | 37.98900 | 58.36828 | 677 ft | 8 kts | 103° |
| 2026-05-06 15:24 | 37.98877 | 58.36889 | 678 ft | 8 kts | 118° |
| 2026-05-06 15:24 | 37.98847 | 58.36956 | 679 ft | 10 kts | 119° |
| 2026-05-06 15:24 | 37.98800 | 58.37039 | 679 ft | 13 kts | 133° |
| 2026-05-06 15:25 | 37.98732 | 58.37117 | 679 ft | 13 kts | 145° |
| 2026-05-06 15:25 | 37.98657 | 58.37182 | 678 ft | 13 kts | 146° |
| 2026-05-06 15:25 | 37.98582 | 58.37240 | 678 ft | 12 kts | 150° |
| 2026-05-06 15:25 | 37.98511 | 58.37299 | 677 ft | 12 kts | 138° |
| 2026-05-06 15:26 | 37.98459 | 58.37381 | 675 ft | 12 kts | 120° |
| 2026-05-06 15:26 | 37.98418 | 58.37471 | 674 ft | 12 kts | 120° |
| 2026-05-06 15:26 | 37.98380 | 58.37559 | 677 ft | 11 kts | 117° |
| 2026-05-06 15:26 | 37.98342 | 58.37644 | 674 ft | 11 kts | 120° |
| 2026-05-06 15:27 | 37.98305 | 58.37727 | 674 ft | 11 kts | 119° |
| 2026-05-06 15:27 | 37.98269 | 58.37807 | 677 ft | 10 kts | 119° |
| 2026-05-06 15:27 | 37.98240 | 58.37888 | 677 ft | 10 kts | 106° |
| 2026-05-06 15:27 | 37.98244 | 58.37958 | 677 ft | 0 kts | 61° |
| 2026-05-06 15:28 | 37.98246 | 58.37962 | 677 ft | 3 kts | 61° |
| 2026-05-06 15:28 | 37.98284 | 58.38018 | 673 ft | 11 kts | 37° |
| 2026-05-06 15:28 | 37.98353 | 58.38048 | 673 ft | 10 kts | 335° |
| 2026-05-06 15:28 | 37.98380 | 58.38007 | 676 ft | 0 kts | 300° |
| 2026-05-06 15:29 | 37.98438 | 58.37878 | 672 ft | 50 kts | 300° |
| 2026-05-06 15:29 | 37.98729 | 58.37222 | 677 ft | 118 kts | 299° |
| 2026-05-06 15:29 | 37.99213 | 58.36120 | 682 ft | 170 kts | 298° |
| 2026-05-06 15:29 | 37.99823 | 58.34794 | 1203 ft | 177 kts | 302° |
| 2026-05-06 15:30 | 38.00509 | 58.33424 | 1740 ft | 192 kts | 302° |
| 2026-05-06 15:30 | 38.01267 | 58.31923 | 2201 ft | 211 kts | 301° |
| 2026-05-06 15:30 | 38.02065 | 58.30297 | 2714 ft | 221 kts | 302° |
| 2026-05-06 15:30 | 38.02932 | 58.28620 | 3077 ft | 234 kts | 304° |
| 2026-05-06 15:31 | 38.03923 | 58.26894 | 3438 ft | 250 kts | 307° |
| 2026-05-06 15:31 | 38.04653 | 58.25682 | 3685 ft | 260 kts | 308° |
| 2026-05-06 15:31 | 38.05795 | 58.23890 | 4349 ft | 262 kts | 310° |
| 2026-05-06 15:32 | 38.08257 | 58.20504 | 5744 ft | 264 kts | 315° |
| 2026-05-06 15:32 | 38.09581 | 58.18802 | 6205 ft | 275 kts | 307° |
| 2026-05-06 15:32 | 38.10505 | 58.16716 | 6999 ft | 271 kts | 298° |
| 2026-05-06 15:32 | 38.11598 | 58.14773 | 7633 ft | 273 kts | 317° |
| 2026-05-06 15:33 | 38.13096 | 58.13274 | 8221 ft | 276 kts | 324° |
| 2026-05-06 15:33 | 38.14669 | 58.11846 | 8808 ft | 279 kts | 324° |
| 2026-05-06 15:33 | 38.16256 | 58.10401 | 9418 ft | 281 kts | 323° |
| 2026-05-06 15:33 | 38.17841 | 58.08938 | 10036 ft | 283 kts | 323° |
| 2026-05-06 15:34 | 38.19427 | 58.07455 | 10653 ft | 285 kts | 322° |
| 2026-05-06 15:34 | 38.21066 | 58.05907 | 10886 ft | 303 kts | 322° |
| 2026-05-06 15:34 | 38.22807 | 58.04247 | 11053 ft | 322 kts | 321° |
| 2026-05-06 15:34 | 38.24650 | 58.02480 | 11195 ft | 341 kts | 321° |
| 2026-05-06 15:35 | 38.26593 | 58.00612 | 11332 ft | 359 kts | 321° |
| 2026-05-06 15:35 | 38.28628 | 57.98652 | 11460 ft | 375 kts | 321° |
| 2026-05-06 15:35 | 38.30746 | 57.96609 | 11568 ft | 389 kts | 321° |
| 2026-05-06 15:35 | 38.32942 | 57.94486 | 11670 ft | 403 kts | 321° |
| 2026-05-06 15:36 | 38.35161 | 57.92338 | 11957 ft | 409 kts | 321° |
| 2026-05-06 15:36 | 38.37462 | 57.90109 | 12392 ft | 411 kts | 321° |
| 2026-05-06 15:36 | 38.39712 | 57.87929 | 12864 ft | 412 kts | 321° |
| 2026-05-06 15:36 | 38.41996 | 57.85710 | 13310 ft | 414 kts | 321° |
| 2026-05-06 15:37 | 38.44291 | 57.83477 | 13720 ft | 416 kts | 321° |
| 2026-05-06 15:37 | 38.46599 | 57.81232 | 14119 ft | 418 kts | 321° |
| 2026-05-06 15:37 | 38.48917 | 57.78976 | 14536 ft | 420 kts | 321° |
| 2026-05-06 15:37 | 38.51240 | 57.76714 | 14942 ft | 422 kts | 321° |
| 2026-05-06 15:38 | 38.53581 | 57.74431 | 15341 ft | 424 kts | 320° |
| 2026-05-06 15:38 | 38.55931 | 57.72137 | 15729 ft | 426 kts | 321° |
| 2026-05-06 15:38 | 38.58292 | 57.69832 | 16116 ft | 428 kts | 320° |
| 2026-05-06 15:38 | 38.60664 | 57.67514 | 16493 ft | 430 kts | 320° |
| 2026-05-06 15:39 | 38.63027 | 57.65149 | 16861 ft | 432 kts | 318° |
| 2026-05-06 15:39 | 38.65315 | 57.62650 | 17247 ft | 433 kts | 316° |
| 2026-05-06 15:39 | 38.67567 | 57.60084 | 17618 ft | 434 kts | 316° |
| 2026-05-06 15:39 | 38.69814 | 57.57489 | 17976 ft | 436 kts | 315° |
| 2026-05-06 15:40 | 38.72076 | 57.54880 | 18323 ft | 439 kts | 316° |
| 2026-05-06 15:40 | 38.74354 | 57.52266 | 18682 ft | 440 kts | 316° |
| 2026-05-06 15:40 | 38.76644 | 57.49652 | 19019 ft | 442 kts | 316° |
| 2026-05-06 15:40 | 38.78951 | 57.47027 | 19349 ft | 444 kts | 316° |
| 2026-05-06 15:41 | 38.81269 | 57.44396 | 19678 ft | 446 kts | 316° |
| 2026-05-06 15:41 | 38.83594 | 57.41758 | 19986 ft | 447 kts | 316° |
| 2026-05-06 15:41 | 38.85930 | 57.39106 | 20274 ft | 450 kts | 316° |
| 2026-05-06 15:41 | 38.88277 | 57.36439 | 20591 ft | 451 kts | 316° |
| 2026-05-06 15:42 | 38.90626 | 57.33767 | 20880 ft | 453 kts | 316° |
| 2026-05-06 15:42 | 38.92985 | 57.31079 | 21156 ft | 454 kts | 316° |
| 2026-05-06 15:42 | 38.95353 | 57.28379 | 21419 ft | 456 kts | 316° |
| 2026-05-06 15:42 | 38.97729 | 57.25668 | 21687 ft | 457 kts | 316° |
| 2026-05-06 15:43 | 39.00111 | 57.22946 | 21948 ft | 459 kts | 316° |
| 2026-05-06 15:43 | 39.02501 | 57.20212 | 22215 ft | 460 kts | 316° |
| 2026-05-06 15:43 | 39.04898 | 57.17468 | 22467 ft | 462 kts | 316° |
| 2026-05-06 15:43 | 39.07300 | 57.14718 | 22709 ft | 463 kts | 315° |
| 2026-05-06 15:44 | 39.09708 | 57.11956 | 22946 ft | 464 kts | 315° |
| 2026-05-06 15:44 | 39.12120 | 57.09188 | 23183 ft | 465 kts | 315° |
| 2026-05-06 15:44 | 39.14537 | 57.06411 | 23412 ft | 466 kts | 315° |
| 2026-05-06 15:44 | 39.16958 | 57.03626 | 23613 ft | 468 kts | 315° |
| 2026-05-06 15:45 | 39.19389 | 57.00827 | 23812 ft | 469 kts | 315° |
| 2026-05-06 15:45 | 39.21827 | 56.98015 | 24019 ft | 471 kts | 315° |
| 2026-05-06 15:45 | 39.24269 | 56.95198 | 24239 ft | 471 kts | 315° |
| 2026-05-06 15:45 | 39.26715 | 56.92375 | 24433 ft | 472 kts | 315° |
| 2026-05-06 15:46 | 39.29166 | 56.89543 | 24601 ft | 474 kts | 315° |
| 2026-05-06 15:46 | 39.31625 | 56.86698 | 24792 ft | 475 kts | 315° |
| 2026-05-06 15:46 | 39.34090 | 56.83844 | 24986 ft | 476 kts | 315° |
| 2026-05-06 15:46 | 39.36560 | 56.80985 | 25180 ft | 477 kts | 315° |
| 2026-05-06 15:47 | 39.39036 | 56.78121 | 25396 ft | 478 kts | 315° |
| 2026-05-06 15:47 | 39.41519 | 56.75265 | 25687 ft | 477 kts | 315° |
| 2026-05-06 15:47 | 39.43993 | 56.72425 | 26027 ft | 475 kts | 315° |
| 2026-05-06 15:47 | 39.46462 | 56.69591 | 26354 ft | 474 kts | 315° |
| 2026-05-06 15:48 | 39.48922 | 56.66762 | 26650 ft | 473 kts | 315° |
| 2026-05-06 15:48 | 39.51349 | 56.63965 | 26954 ft | 473 kts | 315° |
| 2026-05-06 15:48 | 39.53799 | 56.61138 | 27300 ft | 471 kts | 315° |
| 2026-05-06 15:48 | 39.56245 | 56.58311 | 27665 ft | 470 kts | 315° |
| 2026-05-06 15:49 | 39.58679 | 56.55496 | 28033 ft | 468 kts | 315° |
| 2026-05-06 15:49 | 39.61108 | 56.52682 | 28383 ft | 467 kts | 315° |
| 2026-05-06 15:49 | 39.63529 | 56.49874 | 28719 ft | 467 kts | 315° |
| 2026-05-06 15:49 | 39.65947 | 56.47068 | 29076 ft | 466 kts | 315° |
| 2026-05-06 15:50 | 39.68359 | 56.44266 | 29434 ft | 465 kts | 315° |
| 2026-05-06 15:50 | 39.70764 | 56.41470 | 29795 ft | 464 kts | 314° |
| 2026-05-06 15:50 | 39.73161 | 56.38681 | 30165 ft | 462 kts | 314° |
| 2026-05-06 15:50 | 39.75552 | 56.35895 | 30511 ft | 461 kts | 314° |
| 2026-05-06 15:51 | 39.77938 | 56.33111 | 30840 ft | 460 kts | 314° |
| 2026-05-06 15:51 | 39.80315 | 56.30336 | 31168 ft | 459 kts | 314° |
| 2026-05-06 15:51 | 39.82690 | 56.27561 | 31476 ft | 458 kts | 314° |
| 2026-05-06 15:51 | 39.85059 | 56.24791 | 31757 ft | 458 kts | 314° |
| 2026-05-06 15:52 | 39.87426 | 56.22016 | 32043 ft | 458 kts | 314° |
| 2026-05-06 15:52 | 39.89777 | 56.19237 | 32387 ft | 455 kts | 314° |
| 2026-05-06 15:52 | 39.92113 | 56.16460 | 32711 ft | 454 kts | 313° |
| 2026-05-06 15:52 | 39.94439 | 56.13687 | 32967 ft | 453 kts | 313° |
| 2026-05-06 15:53 | 39.96766 | 56.10911 | 33207 ft | 453 kts | 313° |
| 2026-05-06 15:53 | 39.99089 | 56.08138 | 33465 ft | 453 kts | 313° |
| 2026-05-06 15:53 | 40.01409 | 56.05370 | 33755 ft | 451 kts | 313° |
| 2026-05-06 15:53 | 40.03720 | 56.02610 | 33907 ft | 452 kts | 313° |
| 2026-05-06 15:54 | 40.08361 | 55.97059 | 33905 ft | 452 kts | 313° |
| 2026-05-06 15:54 | 40.12979 | 55.91528 | 33904 ft | 449 kts | 313° |
| 2026-05-06 15:55 | 40.17570 | 55.86014 | 33894 ft | 447 kts | 313° |
| 2026-05-06 15:55 | 40.22148 | 55.80510 | 33897 ft | 446 kts | 313° |
| 2026-05-06 15:56 | 40.26714 | 55.75008 | 33893 ft | 446 kts | 313° |
| 2026-05-06 15:56 | 40.31299 | 55.69516 | 33900 ft | 447 kts | 313° |
| 2026-05-06 15:57 | 40.35872 | 55.64058 | 33905 ft | 448 kts | 313° |
| 2026-05-06 15:57 | 40.40493 | 55.58529 | 33901 ft | 450 kts | 313° |
| 2026-05-06 15:58 | 40.45128 | 55.52967 | 33903 ft | 453 kts | 313° |
| 2026-05-06 15:58 | 40.49782 | 55.47367 | 33899 ft | 455 kts | 313° |
| 2026-05-06 15:59 | 40.54449 | 55.41743 | 33901 ft | 455 kts | 313° |
| 2026-05-06 15:59 | 40.59120 | 55.36102 | 33897 ft | 456 kts | 313° |
| 2026-05-06 16:00 | 40.63785 | 55.30456 | 33904 ft | 455 kts | 313° |
| 2026-05-06 16:00 | 40.68449 | 55.24802 | 33895 ft | 456 kts | 313° |
| 2026-05-06 16:01 | 40.73108 | 55.19141 | 33899 ft | 455 kts | 313° |
| 2026-05-06 16:01 | 40.77753 | 55.13487 | 33897 ft | 454 kts | 313° |
| 2026-05-06 16:02 | 40.82388 | 55.07832 | 33899 ft | 453 kts | 313° |
| 2026-05-06 16:02 | 40.87014 | 55.02177 | 33891 ft | 453 kts | 313° |
| 2026-05-06 16:03 | 40.91635 | 54.96516 | 33900 ft | 453 kts | 313° |
| 2026-05-06 16:03 | 40.96250 | 54.90854 | 33899 ft | 453 kts | 313° |
| 2026-05-06 16:04 | 41.00862 | 54.85179 | 33911 ft | 452 kts | 313° |
| 2026-05-06 16:04 | 41.05473 | 54.79491 | 33907 ft | 453 kts | 313° |
| 2026-05-06 16:05 | 41.10088 | 54.73789 | 33904 ft | 454 kts | 313° |
| 2026-05-06 16:05 | 41.14709 | 54.68065 | 33909 ft | 455 kts | 313° |
| 2026-05-06 16:06 | 41.19298 | 54.62370 | 33906 ft | 455 kts | 313° |
| 2026-05-06 16:06 | 41.23923 | 54.56618 | 33908 ft | 456 kts | 313° |
| 2026-05-06 16:07 | 41.28555 | 54.50853 | 33906 ft | 456 kts | 313° |
| 2026-05-06 16:07 | 41.33187 | 54.45067 | 33913 ft | 457 kts | 313° |
| 2026-05-06 16:08 | 41.37824 | 54.39261 | 33909 ft | 458 kts | 313° |
| 2026-05-06 16:08 | 41.42467 | 54.33436 | 33902 ft | 459 kts | 313° |
| 2026-05-06 16:09 | 41.47109 | 54.27606 | 33908 ft | 458 kts | 312° |
| 2026-05-06 16:09 | 41.51748 | 54.21767 | 33912 ft | 458 kts | 312° |
| 2026-05-06 16:10 | 41.56384 | 54.15919 | 33918 ft | 459 kts | 312° |
| 2026-05-06 16:10 | 41.61019 | 54.10058 | 33931 ft | 459 kts | 312° |
| 2026-05-06 16:11 | 41.65655 | 54.04184 | 33937 ft | 460 kts | 312° |
| 2026-05-06 16:11 | 41.70296 | 53.98292 | 33934 ft | 461 kts | 312° |
| 2026-05-06 16:12 | 41.74940 | 53.92385 | 33932 ft | 461 kts | 312° |
| 2026-05-06 16:12 | 41.79583 | 53.86463 | 33935 ft | 461 kts | 312° |
| 2026-05-06 16:13 | 41.84226 | 53.80533 | 33935 ft | 461 kts | 312° |
| 2026-05-06 16:13 | 41.88868 | 53.74590 | 33946 ft | 461 kts | 312° |
| 2026-05-06 16:14 | 41.93505 | 53.68639 | 33937 ft | 461 kts | 312° |
| 2026-05-06 16:14 | 41.98132 | 53.62689 | 33942 ft | 460 kts | 312° |
| 2026-05-06 16:15 | 42.02749 | 53.56741 | 33948 ft | 459 kts | 312° |
| 2026-05-06 16:15 | 42.07360 | 53.50788 | 33943 ft | 459 kts | 312° |
| 2026-05-06 16:16 | 42.11960 | 53.44832 | 33936 ft | 459 kts | 312° |
| 2026-05-06 16:16 | 42.15780 | 53.39879 | 33950 ft | 459 kts | 312° |
| 2026-05-06 16:17 | 42.20379 | 53.33908 | 33942 ft | 459 kts | 312° |
| 2026-05-06 16:17 | 42.25719 | 53.26957 | 33963 ft | 459 kts | 312° |
| 2026-05-06 16:18 | 42.29575 | 53.21934 | 33965 ft | 460 kts | 312° |
| 2026-05-06 16:18 | 42.34182 | 53.15924 | 33965 ft | 461 kts | 312° |
| 2026-05-06 16:19 | 42.38791 | 53.09898 | 33966 ft | 461 kts | 311° |
| 2026-05-06 16:19 | 42.43401 | 53.03856 | 33962 ft | 462 kts | 311° |
| 2026-05-06 16:20 | 42.48016 | 52.97793 | 33968 ft | 462 kts | 311° |
| 2026-05-06 16:20 | 42.52626 | 52.91722 | 33980 ft | 462 kts | 311° |
| 2026-05-06 16:21 | 42.57199 | 52.85688 | 33993 ft | 462 kts | 311° |
| 2026-05-06 16:21 | 42.61809 | 52.79593 | 33992 ft | 463 kts | 311° |
| 2026-05-06 16:22 | 42.66416 | 52.73489 | 33992 ft | 463 kts | 311° |
| 2026-05-06 16:22 | 42.71019 | 52.67376 | 33992 ft | 463 kts | 311° |
| 2026-05-06 16:23 | 42.75622 | 52.61251 | 33996 ft | 463 kts | 311° |
| 2026-05-06 16:23 | 42.80218 | 52.55121 | 34001 ft | 462 kts | 311° |
| 2026-05-06 16:24 | 42.84808 | 52.48986 | 34002 ft | 462 kts | 311° |
| 2026-05-06 16:24 | 42.89395 | 52.42838 | 34000 ft | 462 kts | 311° |
| 2026-05-06 16:25 | 42.93980 | 52.36682 | 33999 ft | 462 kts | 311° |
| 2026-05-06 16:25 | 42.98560 | 52.30519 | 34000 ft | 462 kts | 311° |
| 2026-05-06 16:26 | 43.03140 | 52.24342 | 33991 ft | 463 kts | 311° |
| 2026-05-06 16:26 | 43.07720 | 52.18151 | 33992 ft | 463 kts | 311° |
| 2026-05-06 16:27 | 43.12294 | 52.11954 | 33992 ft | 463 kts | 311° |
| 2026-05-06 16:27 | 43.16872 | 52.05733 | 33992 ft | 464 kts | 311° |
| 2026-05-06 16:28 | 43.21450 | 51.99487 | 33989 ft | 465 kts | 311° |
| 2026-05-06 16:28 | 43.26033 | 51.93217 | 33989 ft | 466 kts | 311° |
| 2026-05-06 16:29 | 43.30625 | 51.86926 | 33997 ft | 467 kts | 311° |
| 2026-05-06 16:29 | 43.35210 | 51.80598 | 33988 ft | 467 kts | 310° |
| 2026-05-06 16:30 | 43.38985 | 51.75276 | 33993 ft | 468 kts | 310° |
| 2026-05-06 16:30 | 43.44291 | 51.67751 | 33990 ft | 469 kts | 310° |
| 2026-05-06 16:31 | 43.48842 | 51.61301 | 33990 ft | 469 kts | 310° |
| 2026-05-06 16:31 | 43.53361 | 51.54890 | 33991 ft | 469 kts | 310° |
| 2026-05-06 16:32 | 43.57906 | 51.48427 | 33992 ft | 469 kts | 310° |
| 2026-05-06 16:32 | 43.62447 | 51.41956 | 33990 ft | 469 kts | 310° |
| 2026-05-06 16:33 | 43.66982 | 51.35475 | 33992 ft | 469 kts | 310° |
| 2026-05-06 16:34 | 43.73773 | 51.25745 | 33987 ft | 468 kts | 310° |
| 2026-05-06 16:34 | 43.78282 | 51.19264 | 33993 ft | 467 kts | 310° |
| 2026-05-06 16:35 | 43.82787 | 51.12774 | 33991 ft | 468 kts | 310° |
| 2026-05-06 16:35 | 43.87327 | 51.06313 | 33988 ft | 469 kts | 314° |
| 2026-05-06 16:36 | 43.92553 | 51.00820 | 33992 ft | 473 kts | 322° |
| 2026-05-06 16:36 | 43.97969 | 50.95616 | 33989 ft | 474 kts | 322° |
| 2026-05-06 16:37 | 44.03367 | 50.90353 | 33997 ft | 474 kts | 322° |
| 2026-05-06 16:37 | 44.08747 | 50.85015 | 33989 ft | 475 kts | 321° |
| 2026-05-06 16:38 | 44.14120 | 50.79643 | 33991 ft | 476 kts | 321° |
| 2026-05-06 16:38 | 44.19499 | 50.74253 | 33989 ft | 477 kts | 321° |
| 2026-05-06 16:39 | 44.24848 | 50.68883 | 33992 ft | 477 kts | 321° |
| 2026-05-06 16:39 | 44.30239 | 50.63461 | 33993 ft | 478 kts | 321° |
| 2026-05-06 16:40 | 44.35637 | 50.58018 | 33990 ft | 478 kts | 321° |
| 2026-05-06 16:40 | 44.41033 | 50.52566 | 33985 ft | 479 kts | 321° |
| 2026-05-06 16:41 | 44.46438 | 50.47091 | 33978 ft | 479 kts | 321° |
| 2026-05-06 16:41 | 44.51838 | 50.41610 | 33980 ft | 479 kts | 321° |
| 2026-05-06 16:42 | 44.57230 | 50.36122 | 33972 ft | 479 kts | 321° |
| 2026-05-06 16:42 | 44.62614 | 50.30629 | 33967 ft | 478 kts | 321° |
| 2026-05-06 16:43 | 44.67987 | 50.25133 | 33971 ft | 477 kts | 321° |
| 2026-05-06 16:43 | 44.73376 | 50.19687 | 33961 ft | 478 kts | 326° |
| 2026-05-06 16:43 | 44.76344 | 50.17560 | 33960 ft | 480 kts | 337° |
| 2026-05-06 16:44 | 44.79539 | 50.16168 | 33967 ft | 482 kts | 346° |
| 2026-05-06 16:44 | 44.86213 | 50.15255 | 33963 ft | 483 kts | 356° |
| 2026-05-06 16:45 | 44.92929 | 50.14815 | 33954 ft | 483 kts | 356° |
| 2026-05-06 16:45 | 44.99636 | 50.14323 | 33947 ft | 482 kts | 356° |
| 2026-05-06 16:46 | 45.06338 | 50.13766 | 33944 ft | 482 kts | 355° |
| 2026-05-06 16:46 | 45.12994 | 50.13191 | 33947 ft | 482 kts | 355° |
| 2026-05-06 16:47 | 45.19682 | 50.12606 | 33934 ft | 481 kts | 356° |
| 2026-05-06 16:47 | 45.26367 | 50.12031 | 33933 ft | 481 kts | 356° |
| 2026-05-06 16:48 | 45.33049 | 50.11455 | 33933 ft | 481 kts | 356° |
| 2026-05-06 16:48 | 45.39728 | 50.10876 | 33922 ft | 480 kts | 356° |
| 2026-05-06 16:49 | 45.46396 | 50.10295 | 33925 ft | 480 kts | 356° |
| 2026-05-06 16:49 | 45.53063 | 50.09717 | 33917 ft | 480 kts | 356° |
| 2026-05-06 16:50 | 45.59721 | 50.09135 | 33917 ft | 479 kts | 356° |
| 2026-05-06 16:50 | 45.66365 | 50.08553 | 33912 ft | 478 kts | 356° |
| 2026-05-06 16:51 | 45.73009 | 50.07973 | 33905 ft | 478 kts | 356° |
| 2026-05-06 16:51 | 45.79645 | 50.07390 | 33910 ft | 477 kts | 356° |
| 2026-05-06 16:52 | 45.86277 | 50.06805 | 33907 ft | 477 kts | 356° |
| 2026-05-06 16:52 | 45.92902 | 50.06210 | 33901 ft | 477 kts | 356° |
| 2026-05-06 16:53 | 45.99522 | 50.05612 | 33895 ft | 477 kts | 356° |
| 2026-05-06 16:53 | 46.06143 | 50.05011 | 33897 ft | 477 kts | 356° |
| 2026-05-06 16:54 | 46.12760 | 50.04411 | 33894 ft | 477 kts | 356° |
| 2026-05-06 16:54 | 46.19386 | 50.03807 | 33888 ft | 477 kts | 356° |
| 2026-05-06 16:55 | 46.26007 | 50.03204 | 33894 ft | 477 kts | 356° |
| 2026-05-06 16:55 | 46.32586 | 50.02603 | 33891 ft | 477 kts | 356° |
| 2026-05-06 16:56 | 46.39209 | 50.01994 | 33876 ft | 477 kts | 356° |
| 2026-05-06 16:56 | 46.45833 | 50.01388 | 33882 ft | 477 kts | 356° |
| 2026-05-06 16:57 | 46.52459 | 50.00779 | 33880 ft | 477 kts | 356° |
| 2026-05-06 16:57 | 46.59089 | 50.00168 | 33880 ft | 477 kts | 356° |
| 2026-05-06 16:58 | 46.65720 | 49.99555 | 33874 ft | 477 kts | 356° |
| 2026-05-06 16:58 | 46.72347 | 49.98943 | 33867 ft | 477 kts | 356° |
| 2026-05-06 16:59 | 46.78964 | 49.98332 | 33871 ft | 476 kts | 356° |
| 2026-05-06 16:59 | 46.85568 | 49.97721 | 33871 ft | 475 kts | 356° |
| 2026-05-06 17:00 | 46.92161 | 49.97108 | 33870 ft | 474 kts | 356° |
| 2026-05-06 17:00 | 46.98741 | 49.96493 | 33868 ft | 474 kts | 356° |
| 2026-05-06 17:01 | 47.05311 | 49.95880 | 33870 ft | 473 kts | 356° |
| 2026-05-06 17:01 | 47.11866 | 49.95267 | 33869 ft | 472 kts | 356° |
| 2026-05-06 17:02 | 47.18413 | 49.94652 | 33866 ft | 471 kts | 356° |
| 2026-05-06 17:02 | 47.24951 | 49.94037 | 33853 ft | 471 kts | 356° |
| 2026-05-06 17:03 | 47.31481 | 49.93419 | 33852 ft | 470 kts | 355° |
| 2026-05-06 17:03 | 47.37965 | 49.92806 | 33849 ft | 470 kts | 355° |
| 2026-05-06 17:04 | 47.44484 | 49.92188 | 33853 ft | 470 kts | 355° |
| 2026-05-06 17:04 | 47.51003 | 49.91570 | 33852 ft | 469 kts | 355° |
| 2026-05-06 17:05 | 47.57520 | 49.90949 | 33852 ft | 469 kts | 355° |
| 2026-05-06 17:05 | 47.64035 | 49.90325 | 33853 ft | 469 kts | 355° |
| 2026-05-06 17:06 | 47.70548 | 49.89700 | 33851 ft | 469 kts | 355° |
| 2026-05-06 17:06 | 47.77067 | 49.89075 | 33852 ft | 469 kts | 355° |
| 2026-05-06 17:07 | 47.82488 | 49.88552 | 33853 ft | 469 kts | 355° |
| 2026-05-06 17:07 | 47.89008 | 49.87923 | 33851 ft | 470 kts | 355° |
| 2026-05-06 17:08 | 47.95537 | 49.87294 | 33852 ft | 470 kts | 355° |
| 2026-05-06 17:08 | 48.02069 | 49.86662 | 33853 ft | 471 kts | 355° |
| 2026-05-06 17:09 | 48.08601 | 49.86026 | 33850 ft | 470 kts | 355° |
| 2026-05-06 17:09 | 48.15129 | 49.85392 | 33854 ft | 470 kts | 355° |
| 2026-05-06 17:10 | 48.21657 | 49.84753 | 33852 ft | 470 kts | 355° |
| 2026-05-06 17:10 | 48.28183 | 49.84114 | 33852 ft | 470 kts | 355° |
| 2026-05-06 17:11 | 48.34711 | 49.83474 | 33852 ft | 470 kts | 355° |
| 2026-05-06 17:11 | 48.41238 | 49.82831 | 33853 ft | 470 kts | 355° |
| 2026-05-06 17:12 | 48.47760 | 49.82187 | 33852 ft | 470 kts | 355° |
| 2026-05-06 17:12 | 48.54282 | 49.81541 | 33853 ft | 469 kts | 355° |
| 2026-05-06 17:13 | 48.60790 | 49.80896 | 33852 ft | 468 kts | 355° |
| 2026-05-06 17:13 | 48.67247 | 49.80253 | 33850 ft | 468 kts | 355° |
| 2026-05-06 17:14 | 48.73736 | 49.79606 | 33852 ft | 467 kts | 355° |
| 2026-05-06 17:14 | 48.80216 | 49.78958 | 33853 ft | 466 kts | 355° |
| 2026-05-06 17:15 | 48.86683 | 49.78309 | 33851 ft | 465 kts | 356° |
| 2026-05-06 17:15 | 48.93136 | 49.77660 | 33849 ft | 464 kts | 356° |
| 2026-05-06 17:16 | 48.99572 | 49.77012 | 33854 ft | 463 kts | 356° |
| 2026-05-06 17:16 | 49.05987 | 49.76368 | 33849 ft | 462 kts | 356° |
| 2026-05-06 17:17 | 49.12393 | 49.75716 | 33853 ft | 460 kts | 356° |
| 2026-05-06 17:17 | 49.18781 | 49.75060 | 33851 ft | 460 kts | 356° |
| 2026-05-06 17:18 | 49.25166 | 49.74396 | 33854 ft | 460 kts | 356° |
| 2026-05-06 17:18 | 49.31553 | 49.73731 | 33851 ft | 460 kts | 356° |
| 2026-05-06 17:19 | 49.37941 | 49.73066 | 33851 ft | 460 kts | 356° |
| 2026-05-06 17:19 | 49.44328 | 49.72403 | 33855 ft | 460 kts | 356° |
| 2026-05-06 17:20 | 49.50678 | 49.71742 | 33851 ft | 460 kts | 356° |
| 2026-05-06 17:20 | 49.57069 | 49.71072 | 33851 ft | 460 kts | 356° |
| 2026-05-06 17:21 | 49.63459 | 49.70398 | 33850 ft | 460 kts | 356° |
| 2026-05-06 17:21 | 49.69847 | 49.69726 | 33853 ft | 460 kts | 356° |
| 2026-05-06 17:22 | 49.76231 | 49.69056 | 33851 ft | 460 kts | 356° |
| 2026-05-06 17:22 | 49.82612 | 49.68383 | 33854 ft | 460 kts | 356° |
| 2026-05-06 17:23 | 49.88994 | 49.67705 | 33848 ft | 460 kts | 356° |
| 2026-05-06 17:23 | 49.95375 | 49.67026 | 33842 ft | 460 kts | 356° |
| 2026-05-06 17:24 | 50.01759 | 49.66345 | 33843 ft | 460 kts | 356° |
| 2026-05-06 17:24 | 50.08141 | 49.65662 | 33844 ft | 460 kts | 356° |
| 2026-05-06 17:25 | 50.14523 | 49.64979 | 33844 ft | 459 kts | 356° |
| 2026-05-06 17:25 | 50.20897 | 49.64295 | 33842 ft | 459 kts | 356° |
| 2026-05-06 17:26 | 50.27229 | 49.63612 | 33843 ft | 459 kts | 356° |
| 2026-05-06 17:26 | 50.33600 | 49.62923 | 33842 ft | 459 kts | 356° |
| 2026-05-06 17:27 | 50.39960 | 49.62230 | 33841 ft | 458 kts | 356° |
| 2026-05-06 17:27 | 50.46319 | 49.61542 | 33843 ft | 458 kts | 356° |
| 2026-05-06 17:28 | 50.52675 | 49.60849 | 33841 ft | 458 kts | 356° |
| 2026-05-06 17:28 | 50.59028 | 49.60153 | 33842 ft | 458 kts | 356° |
| 2026-05-06 17:29 | 50.65381 | 49.59461 | 33841 ft | 458 kts | 356° |
| 2026-05-06 17:29 | 50.71736 | 49.58765 | 33843 ft | 458 kts | 356° |
| 2026-05-06 17:30 | 50.78086 | 49.58069 | 33842 ft | 457 kts | 356° |
| 2026-05-06 17:30 | 50.84432 | 49.57366 | 33843 ft | 457 kts | 356° |
| 2026-05-06 17:31 | 50.90775 | 49.56662 | 33842 ft | 457 kts | 356° |
| 2026-05-06 17:31 | 50.97113 | 49.55956 | 33844 ft | 457 kts | 356° |
| 2026-05-06 17:32 | 51.03452 | 49.55254 | 33842 ft | 457 kts | 356° |
| 2026-05-06 17:32 | 51.09715 | 49.53768 | 33824 ft | 457 kts | 338° |
| 2026-05-06 17:32 | 51.12513 | 49.51394 | 33838 ft | 458 kts | 324° |
| 2026-05-06 17:33 | 51.14883 | 49.48013 | 33840 ft | 458 kts | 312° |
| 2026-05-06 17:33 | 51.19066 | 49.40344 | 33836 ft | 459 kts | 311° |
| 2026-05-06 17:34 | 51.23229 | 49.32613 | 33844 ft | 460 kts | 311° |
| 2026-05-06 17:34 | 51.27429 | 49.24913 | 33855 ft | 460 kts | 311° |
| 2026-05-06 17:35 | 51.31619 | 49.17278 | 33862 ft | 460 kts | 312° |
| 2026-05-06 17:35 | 51.35840 | 49.09572 | 33866 ft | 461 kts | 312° |
| 2026-05-06 17:36 | 51.42177 | 48.97978 | 33861 ft | 461 kts | 311° |
| 2026-05-06 17:36 | 51.46389 | 48.90233 | 33861 ft | 461 kts | 311° |
| 2026-05-06 17:37 | 51.50591 | 48.82479 | 33861 ft | 460 kts | 311° |
| 2026-05-06 17:37 | 51.54784 | 48.74719 | 33868 ft | 460 kts | 311° |
| 2026-05-06 17:38 | 51.58967 | 48.66956 | 33870 ft | 459 kts | 311° |
| 2026-05-06 17:38 | 51.63138 | 48.59190 | 33870 ft | 459 kts | 311° |
| 2026-05-06 17:39 | 51.67302 | 48.51413 | 33871 ft | 458 kts | 311° |
| 2026-05-06 17:39 | 51.71458 | 48.43631 | 33873 ft | 458 kts | 311° |
| 2026-05-06 17:40 | 51.75041 | 48.35187 | 33883 ft | 458 kts | 295° |
| 2026-05-06 17:40 | 51.77231 | 48.25539 | 33869 ft | 458 kts | 289° |
| 2026-05-06 17:41 | 51.79234 | 48.15762 | 33874 ft | 459 kts | 289° |
| 2026-05-06 17:41 | 51.81262 | 48.05987 | 33867 ft | 459 kts | 289° |
| 2026-05-06 17:42 | 51.83316 | 47.96221 | 33869 ft | 459 kts | 289° |
| 2026-05-06 17:42 | 51.85374 | 47.86449 | 33868 ft | 459 kts | 289° |
| 2026-05-06 17:43 | 51.87424 | 47.76669 | 33874 ft | 459 kts | 289° |
| 2026-05-06 17:43 | 51.89463 | 47.66886 | 33881 ft | 459 kts | 289° |
| 2026-05-06 17:44 | 51.91482 | 47.57155 | 33880 ft | 459 kts | 289° |
| 2026-05-06 17:44 | 51.93505 | 47.47349 | 33880 ft | 459 kts | 289° |
| 2026-05-06 17:45 | 51.95519 | 47.37529 | 33877 ft | 459 kts | 289° |
| 2026-05-06 17:45 | 51.97527 | 47.27701 | 33886 ft | 459 kts | 288° |
| 2026-05-06 17:46 | 51.99527 | 47.17873 | 33878 ft | 459 kts | 288° |
| 2026-05-06 17:46 | 52.01517 | 47.08032 | 33883 ft | 459 kts | 288° |
| 2026-05-06 17:47 | 52.03499 | 46.98182 | 33878 ft | 459 kts | 288° |
| 2026-05-06 17:47 | 52.05469 | 46.88343 | 33881 ft | 458 kts | 288° |
| 2026-05-06 17:48 | 52.07431 | 46.78497 | 33876 ft | 458 kts | 288° |
| 2026-05-06 17:48 | 52.09384 | 46.68645 | 33878 ft | 458 kts | 288° |
| 2026-05-06 17:49 | 52.11328 | 46.58789 | 33878 ft | 457 kts | 288° |
| 2026-05-06 17:49 | 52.13261 | 46.48932 | 33880 ft | 457 kts | 288° |
| 2026-05-06 17:50 | 52.15188 | 46.39063 | 33878 ft | 457 kts | 288° |